Time;durP1;ratioP1;P1;durP2;ratioP2;P2;SDS_P1;SDS_P2;PMS_P1;PMS_P2;Temp;Humidity;BMP_temperature;BMP_pressure;BME280_temperature;BME280_humidity;BME280_pressure;Samples;Min_cycle;Max_cycle;Signal;HPM_P1;HPM_P2
2023/09/03 00:00:04;;;;;;;7.70;5.30;;;;;;;;;;103986;1290;544999;-77
2023/09/03 00:03:40;;;;;;;7.20;4.40;;;;;;;;;;103983;1289;545498;-74
2023/09/03 00:07:29;;;;;;;7.60;4.80;;;;;;;;;;103589;1295;547920;-76
2023/09/03 00:10:55;;;;;;;9.70;5.30;;;;;;;;;;104006;1289;544978;-75
2023/09/03 00:14:28;;;;;;;7.80;4.60;;;;;;;;;;103908;1289;546247;-74
2023/09/03 00:18:14;;;;;;;6.30;4.00;;;;;;;;;;103714;1289;545033;-74
2023/09/03 00:21:48;;;;;;;7.40;4.10;;;;;;;;;;103785;1291;545043;-74
2023/09/03 00:25:26;;;;;;;7.30;4.00;;;;;;;;;;104261;1288;544811;-75
2023/09/03 00:29:03;;;;;;;8.60;4.70;;;;;;;;;;103735;1291;545731;-80
2023/09/03 00:32:41;;;;;;;8.70;4.50;;;;;;;;;;104026;1289;545425;-75
2023/09/03 00:36:17;;;;;;;7.50;4.30;;;;;;;;;;103852;1293;545779;-74
2023/09/03 00:40:01;;;;;;;6.50;3.90;;;;;;;;;;103510;1292;548352;-76
2023/09/03 00:53:57;;;;;;;7.70;4.20;;;;;;;;;;104694;1285;549913;-74
2023/09/03 00:56:49;;;;;;;9.00;4.60;;;;;;;;;;103918;1288;544869;-74
2023/09/03 01:00:26;;;;;;;8.90;5.10;;;;;;;;;;103650;1296;544708;-74
2023/09/03 01:14:52;;;;;;;7.30;4.60;;;;;;;;;;106681;1265;552899;-74
2023/09/03 01:17:46;;;;;;;8.20;5.90;;;;;;;;;;103905;1293;544826;-74
2023/09/03 01:21:21;;;;;;;8.20;4.60;;;;;;;;;;103691;1292;545220;-74
2023/09/03 01:25:04;;;;;;;7.10;4.20;;;;;;;;;;103943;1289;544961;-74
2023/09/03 01:28:44;;;;;;;8.20;5.30;;;;;;;;;;104006;1290;544878;-77
2023/09/03 01:32:43;;;;;;;8.90;5.70;;;;;;;;;;103620;1294;547884;-74
2023/09/03 01:36:18;;;;;;;8.70;5.40;;;;;;;;;;104197;1291;548099;-74
2023/09/03 01:39:38;;;;;;;9.10;5.00;;;;;;;;;;103850;1290;544816;-76
2023/09/03 01:54:21;;;;;;;7.60;4.50;;;;;;;;;;104620;1285;553639;-74
2023/09/03 01:57:15;;;;;;;7.70;4.80;;;;;;;;;;103729;1289;545298;-74
2023/09/03 02:00:46;;;;;;;7.10;4.90;;;;;;;;;;103927;1292;547941;-74
2023/09/03 02:04:22;;;;;;;7.80;4.80;;;;;;;;;;103715;1292;545635;-74
2023/09/03 02:07:59;;;;;;;8.10;4.40;;;;;;;;;;103797;1291;545743;-75
2023/09/03 02:11:36;;;;;;;7.20;4.70;;;;;;;;;;103883;1289;545399;-74
2023/09/03 02:15:08;;;;;;;7.80;5.10;;;;;;;;;;103920;1292;546066;-78
2023/09/03 02:18:53;;;;;;;7.60;4.70;;;;;;;;;;103613;1293;544945;-80
2023/09/03 02:22:34;;;;;;;7.30;4.50;;;;;;;;;;103626;1289;547993;-75
2023/09/03 02:26:05;;;;;;;9.40;5.60;;;;;;;;;;103861;1290;545514;-74
2023/09/03 02:29:46;;;;;;;9.80;5.90;;;;;;;;;;103592;1291;547941;-77
2023/09/03 02:33:29;;;;;;;8.10;5.20;;;;;;;;;;103533;1291;547961;-76
2023/09/03 02:37:02;;;;;;;7.90;5.00;;;;;;;;;;103765;1293;547922;-74
2023/09/03 02:40:42;;;;;;;7.50;4.40;;;;;;;;;;103614;1291;548700;-74
2023/09/03 02:44:13;;;;;;;8.90;5.70;;;;;;;;;;103728;1289;544997;-75
2023/09/03 02:47:54;;;;;;;9.90;6.20;;;;;;;;;;103864;1293;545299;-75
2023/09/03 02:51:46;;;;;;;8.30;5.60;;;;;;;;;;103582;1295;545310;-75
2023/09/03 02:55:02;;;;;;;7.70;5.20;;;;;;;;;;103830;1289;545071;-74
2023/09/03 02:59:01;;;;;;;7.50;4.70;;;;;;;;;;103815;1292;547854;-74
2023/09/03 03:02:22;;;;;;;8.50;6.10;;;;;;;;;;103668;1289;544970;-74
2023/09/03 03:06:19;;;;;;;9.10;5.80;;;;;;;;;;104810;1282;547945;-74
2023/09/03 03:20:14;;;;;;;8.30;5.10;;;;;;;;;;104114;1288;554470;-79
2023/09/03 03:23:09;;;;;;;8.00;5.20;;;;;;;;;;103805;1288;545300;-78
2023/09/03 03:27:14;;;;;;;8.70;5.20;;;;;;;;;;103803;1292;547994;-75
2023/09/03 03:41:20;;;;;;;7.50;4.60;;;;;;;;;;103649;1292;554184;-74
2023/09/03 03:44:12;;;;;;;8.10;5.00;;;;;;;;;;103688;1288;545033;-77
2023/09/03 03:47:50;;;;;;;8.20;5.40;;;;;;;;;;103755;1290;544951;-74
2023/09/03 03:51:31;;;;;;;7.50;5.40;;;;;;;;;;103744;1296;545735;-74
2023/09/03 03:55:08;;;;;;;7.10;4.70;;;;;;;;;;104060;1285;544864;-74
2023/09/03 03:58:39;;;;;;;7.70;5.30;;;;;;;;;;103919;1292;544815;-75
2023/09/03 04:02:28;;;;;;;8.70;5.20;;;;;;;;;;103364;1294;548133;-76
2023/09/03 04:06:03;;;;;;;7.40;4.70;;;;;;;;;;103791;1288;545449;-74
2023/09/03 04:09:37;;;;;;;7.80;4.90;;;;;;;;;;103816;1292;544721;-74
2023/09/03 04:13:12;;;;;;;8.00;4.30;;;;;;;;;;103874;1289;544964;-74
2023/09/03 04:16:51;;;;;;;9.50;5.30;;;;;;;;;;103647;1289;545079;-74
2023/09/03 04:20:28;;;;;;;8.10;5.60;;;;;;;;;;103862;1288;545406;-74
2023/09/03 04:24:17;;;;;;;8.20;5.30;;;;;;;;;;104001;1292;548243;-74
2023/09/03 04:27:49;;;;;;;8.30;4.80;;;;;;;;;;103840;1289;547740;-74
2023/09/03 04:42:07;;;;;;;8.30;4.70;;;;;;;;;;107116;1264;549402;-77
2023/09/03 04:44:57;;;;;;;12.10;6.00;;;;;;;;;;103844;1289;545434;-76
2023/09/03 04:48:34;;;;;;;8.30;5.90;;;;;;;;;;103800;1289;544913;-74
2023/09/03 04:52:23;;;;;;;8.10;4.80;;;;;;;;;;103636;1295;545732;-74
2023/09/03 04:55:47;;;;;;;7.70;4.70;;;;;;;;;;103972;1295;545140;-74
2023/09/03 05:09:51;;;;;;;7.30;4.30;;;;;;;;;;104777;1282;549618;-74
2023/09/03 05:12:46;;;;;;;8.30;4.90;;;;;;;;;;103793;1292;545480;-76
2023/09/03 05:16:23;;;;;;;7.90;5.00;;;;;;;;;;103765;1292;544910;-75
2023/09/03 05:20:00;;;;;;;8.40;4.30;;;;;;;;;;103838;1292;544971;-74
2023/09/03 05:23:31;;;;;;;7.00;3.80;;;;;;;;;;103959;1293;545823;-74
2023/09/03 05:27:14;;;;;;;10.10;4.40;;;;;;;;;;104098;1287;545589;-74
2023/09/03 05:30:52;;;;;;;7.30;4.60;;;;;;;;;;103954;1292;545461;-74
2023/09/03 05:34:26;;;;;;;8.00;4.50;;;;;;;;;;103831;1292;544762;-73
2023/09/03 05:38:10;;;;;;;7.50;4.50;;;;;;;;;;103512;1292;545731;-74
2023/09/03 05:41:40;;;;;;;7.90;4.20;;;;;;;;;;103923;1289;545325;-74
2023/09/03 05:45:20;;;;;;;8.80;4.30;;;;;;;;;;104001;1286;545023;-73
2023/09/03 05:49:09;;;;;;;7.40;4.60;;;;;;;;;;103675;1292;547763;-74
2023/09/03 05:52:42;;;;;;;7.10;4.20;;;;;;;;;;103723;1289;545319;-74
2023/09/03 06:07:00;;;;;;;6.90;3.70;;;;;;;;;;106944;1262;549110;-73
2023/09/03 06:09:48;;;;;;;6.60;3.80;;;;;;;;;;103997;1292;545955;-74
2023/09/03 06:13:33;;;;;;;7.20;4.60;;;;;;;;;;103653;1289;545365;-74
2023/09/03 06:17:07;;;;;;;8.30;4.40;;;;;;;;;;103884;1289;544726;-76
2023/09/03 06:20:47;;;;;;;7.70;4.30;;;;;;;;;;103820;1292;549755;-79
2023/09/03 06:24:22;;;;;;;6.90;4.10;;;;;;;;;;104051;1286;545125;-73
2023/09/03 06:28:04;;;;;;;7.30;5.10;;;;;;;;;;103494;1291;545303;-74
2023/09/03 06:31:37;;;;;;;8.30;4.90;;;;;;;;;;104009;1286;544920;-74
2023/09/03 06:35:16;;;;;;;8.70;4.50;;;;;;;;;;103740;1291;545762;-77
2023/09/03 06:38:56;;;;;;;7.70;4.60;;;;;;;;;;103539;1292;545137;-74
2023/09/03 06:42:27;;;;;;;8.20;5.60;;;;;;;;;;103902;1290;544950;-79
2023/09/03 06:46:10;;;;;;;9.10;4.90;;;;;;;;;;103823;1290;544783;-79
2023/09/03 06:49:51;;;;;;;7.80;4.70;;;;;;;;;;103788;1289;544799;-75
2023/09/03 06:53:25;;;;;;;7.80;4.50;;;;;;;;;;103823;1292;544729;-74
2023/09/03 06:57:10;;;;;;;7.10;4.60;;;;;;;;;;103667;1288;548014;-74
2023/09/03 07:00:47;;;;;;;8.30;5.30;;;;;;;;;;103869;1291;545800;-74
2023/09/03 07:04:14;;;;;;;7.70;4.90;;;;;;;;;;104101;1289;544793;-75
2023/09/03 07:07:55;;;;;;;7.30;4.60;;;;;;;;;;103936;1289;546216;-74
2023/09/03 07:11:32;;;;;;;8.10;5.70;;;;;;;;;;103801;1291;544763;-74
2023/09/03 07:15:15;;;;;;;9.20;6.30;;;;;;;;;;104145;1283;548077;-75
2023/09/03 07:18:47;;;;;;;8.60;5.90;;;;;;;;;;103821;1293;545426;-75
2023/09/03 07:22:30;;;;;;;7.80;5.80;;;;;;;;;;103497;1304;547869;-74
2023/09/03 07:26:05;;;;;;;7.80;5.60;;;;;;;;;;103734;1289;545914;-74
2023/09/03 07:29:39;;;;;;;8.40;5.70;;;;;;;;;;104566;1283;544990;-77
2023/09/03 07:33:17;;;;;;;7.80;5.60;;;;;;;;;;103842;1293;544981;-74
2023/09/03 07:36:50;;;;;;;7.50;4.90;;;;;;;;;;104766;1282;544819;-75
2023/09/03 07:40:37;;;;;;;7.60;5.20;;;;;;;;;;103795;1290;545112;-74
2023/09/03 07:44:10;;;;;;;7.20;4.80;;;;;;;;;;103782;1291;544764;-75
2023/09/03 07:47:44;;;;;;;8.00;5.70;;;;;;;;;;103684;1291;544719;-73
2023/09/03 07:51:27;;;;;;;8.80;4.90;;;;;;;;;;103698;1292;544978;-73
2023/09/03 07:55:00;;;;;;;7.80;5.50;;;;;;;;;;103838;1295;544987;-75
2023/09/03 07:58:42;;;;;;;7.20;5.30;;;;;;;;;;103727;1290;545023;-74
2023/09/03 08:02:20;;;;;;;8.70;5.50;;;;;;;;;;103785;1293;545347;-74
2023/09/03 08:05:59;;;;;;;7.20;5.00;;;;;;;;;;103477;1295;546915;-75
2023/09/03 08:09:35;;;;;;;8.50;5.60;;;;;;;;;;104076;1291;545361;-74
2023/09/03 08:13:12;;;;;;;7.40;5.50;;;;;;;;;;103653;1295;544962;-77
2023/09/03 08:16:50;;;;;;;7.60;5.70;;;;;;;;;;104245;1289;545567;-74
2023/09/03 08:20:23;;;;;;;8.40;5.40;;;;;;;;;;103772;1289;544865;-79
2023/09/03 08:24:06;;;;;;;7.10;5.00;;;;;;;;;;103760;1289;545399;-75
2023/09/03 08:27:43;;;;;;;8.40;5.30;;;;;;;;;;103476;1293;545371;-78
2023/09/03 08:31:21;;;;;;;7.50;5.10;;;;;;;;;;103997;1292;546505;-74
2023/09/03 08:34:58;;;;;;;8.50;4.80;;;;;;;;;;103808;1289;545564;-77
2023/09/03 08:38:35;;;;;;;6.90;4.40;;;;;;;;;;103716;1290;544861;-78
2023/09/03 08:42:13;;;;;;;7.80;4.30;;;;;;;;;;104646;1289;545646;-75
2023/09/03 08:45:54;;;;;;;7.70;4.90;;;;;;;;;;103897;1289;545752;-75
2023/09/03 08:49:29;;;;;;;8.10;5.00;;;;;;;;;;103861;1289;546027;-75
2023/09/03 08:53:06;;;;;;;7.10;4.50;;;;;;;;;;105920;1288;545747;-75
2023/09/03 08:56:39;;;;;;;7.00;3.90;;;;;;;;;;104090;1290;545148;-74
2023/09/03 09:00:21;;;;;;;6.90;4.20;;;;;;;;;;103844;1291;544964;-74
2023/09/03 09:04:01;;;;;;;7.40;3.40;;;;;;;;;;103795;1292;545358;-75
2023/09/03 09:07:36;;;;;;;7.10;4.00;;;;;;;;;;103813;1292;545625;-75
2023/09/03 09:11:16;;;;;;;7.40;4.60;;;;;;;;;;103579;1293;545022;-75
2023/09/03 09:14:47;;;;;;;7.00;3.50;;;;;;;;;;103803;1292;544962;-74
2023/09/03 09:18:30;;;;;;;7.70;3.40;;;;;;;;;;103741;1288;544930;-75
2023/09/03 09:22:07;;;;;;;8.20;3.80;;;;;;;;;;103908;1290;544863;-75
2023/09/03 09:25:45;;;;;;;5.90;3.00;;;;;;;;;;103682;1289;544829;-76
2023/09/03 09:29:22;;;;;;;6.10;3.50;;;;;;;;;;103846;1289;544959;-76
2023/09/03 09:33:03;;;;;;;6.30;3.40;;;;;;;;;;103764;1291;544950;-76
2023/09/03 09:36:37;;;;;;;6.60;3.40;;;;;;;;;;103814;1302;545044;-73
2023/09/03 09:40:24;;;;;;;6.40;2.30;;;;;;;;;;103690;1292;544865;-74
2023/09/03 09:43:52;;;;;;;6.00;3.00;;;;;;;;;;103781;1289;545398;-74
2023/09/03 09:47:29;;;;;;;6.20;2.90;;;;;;;;;;103722;1292;546311;-73
2023/09/03 09:51:08;;;;;;;5.80;2.60;;;;;;;;;;103783;1295;544964;-75
2023/09/03 09:54:47;;;;;;;6.30;2.80;;;;;;;;;;104031;1290;545465;-75
2023/09/03 09:58:22;;;;;;;6.10;3.30;;;;;;;;;;104025;1299;544861;-74
2023/09/03 10:02:11;;;;;;;6.50;3.00;;;;;;;;;;103688;1292;544781;-76
2023/09/03 10:05:37;;;;;;;5.60;3.10;;;;;;;;;;103849;1289;545434;-72
2023/09/03 10:09:14;;;;;;;6.10;3.00;;;;;;;;;;103648;1293;545657;-75
2023/09/03 10:12:53;;;;;;;6.40;3.10;;;;;;;;;;103696;1292;544744;-75
2023/09/03 10:16:25;;;;;;;5.70;3.00;;;;;;;;;;103933;1289;545011;-75
2023/09/03 10:20:18;;;;;;;5.70;3.20;;;;;;;;;;103604;1293;544951;-77
2023/09/03 10:23:48;;;;;;;5.90;3.20;;;;;;;;;;104016;1288;545692;-75
2023/09/03 10:27:29;;;;;;;6.80;3.30;;;;;;;;;;103798;1289;545220;-75
2023/09/03 10:31:12;;;;;;;5.80;3.30;;;;;;;;;;103673;1289;544845;-74
2023/09/03 10:34:49;;;;;;;6.90;3.30;;;;;;;;;;103768;1292;545025;-76
2023/09/03 10:38:29;;;;;;;6.70;3.80;;;;;;;;;;103691;1292;544732;-75
2023/09/03 10:42:15;;;;;;;6.30;3.50;;;;;;;;;;103668;1292;547895;-75
2023/09/03 10:46:00;;;;;;;6.20;3.20;;;;;;;;;;103709;1291;544928;-74
2023/09/03 10:49:19;;;;;;;5.80;3.00;;;;;;;;;;104104;1289;544820;-75
2023/09/03 10:52:55;;;;;;;4.90;2.60;;;;;;;;;;103657;1292;545013;-77
2023/09/03 10:56:33;;;;;;;5.70;2.60;;;;;;;;;;103428;1294;545034;-77
2023/09/03 11:00:13;;;;;;;6.10;2.20;;;;;;;;;;103722;1298;544727;-75
2023/09/03 11:03:49;;;;;;;5.00;2.20;;;;;;;;;;103662;1291;544718;-76
2023/09/03 11:07:31;;;;;;;5.00;2.50;;;;;;;;;;103288;1294;548270;-75
2023/09/03 11:11:04;;;;;;;4.80;2.20;;;;;;;;;;103553;1294;544791;-74
2023/09/03 11:14:41;;;;;;;4.50;2.20;;;;;;;;;;103647;1291;544981;-75
2023/09/03 11:18:27;;;;;;;6.00;2.40;;;;;;;;;;103606;1292;547832;-82
2023/09/03 11:22:02;;;;;;;4.70;2.00;;;;;;;;;;103501;1292;548447;-76
2023/09/03 11:25:36;;;;;;;5.70;2.10;;;;;;;;;;103774;1291;545211;-75
2023/09/03 11:29:21;;;;;;;5.90;2.30;;;;;;;;;;103828;1290;545001;-75
2023/09/03 11:32:44;;;;;;;6.70;2.60;;;;;;;;;;103980;1292;545367;-74
2023/09/03 11:36:26;;;;;;;4.60;2.20;;;;;;;;;;103780;1292;544867;-74
2023/09/03 11:40:04;;;;;;;6.00;2.50;;;;;;;;;;104285;1288;544786;-73
2023/09/03 11:43:41;;;;;;;5.30;2.40;;;;;;;;;;103495;1293;545436;-74
2023/09/03 11:47:19;;;;;;;5.80;2.70;;;;;;;;;;103745;1292;545578;-76
2023/09/03 11:50:56;;;;;;;7.40;2.60;;;;;;;;;;103734;1290;545880;-75
2023/09/03 11:54:34;;;;;;;5.50;2.80;;;;;;;;;;104269;1285;544945;-76
2023/09/03 11:58:13;;;;;;;5.00;2.50;;;;;;;;;;103692;1291;544702;-75
2023/09/03 12:01:49;;;;;;;5.60;2.10;;;;;;;;;;103805;1291;545307;-74
2023/09/03 12:05:27;;;;;;;5.70;2.30;;;;;;;;;;103914;1291;545068;-76
2023/09/03 12:09:08;;;;;;;4.90;2.50;;;;;;;;;;103685;1291;544741;-73
2023/09/03 12:12:44;;;;;;;4.90;2.60;;;;;;;;;;103648;1292;544748;-74
2023/09/03 12:16:22;;;;;;;6.20;2.60;;;;;;;;;;103940;1289;546162;-75
2023/09/03 12:19:58;;;;;;;7.10;4.10;;;;;;;;;;103730;1291;544998;-73
2023/09/03 12:23:30;;;;;;;6.10;3.10;;;;;;;;;;104076;1289;545156;-74
2023/09/03 12:27:12;;;;;;;5.70;2.70;;;;;;;;;;104058;1292;545642;-76
2023/09/03 12:31:00;;;;;;;4.90;2.60;;;;;;;;;;103806;1289;545713;-74
2023/09/03 12:34:34;;;;;;;5.70;2.60;;;;;;;;;;104443;1295;544801;-74
2023/09/03 12:38:05;;;;;;;4.80;2.80;;;;;;;;;;104109;1286;545454;-75
2023/09/03 12:41:38;;;;;;;6.40;2.70;;;;;;;;;;104255;1286;545711;-74
2023/09/03 12:45:21;;;;;;;4.90;2.60;;;;;;;;;;104192;1285;544957;-73
2023/09/03 12:48:58;;;;;;;5.40;2.60;;;;;;;;;;103854;1292;545483;-74
2023/09/03 12:52:35;;;;;;;5.10;2.30;;;;;;;;;;103769;1292;544723;-75
2023/09/03 12:56:13;;;;;;;6.90;3.10;;;;;;;;;;103738;1291;544754;-73
2023/09/03 12:59:46;;;;;;;6.70;2.70;;;;;;;;;;103769;1295;544788;-77
2023/09/03 13:03:26;;;;;;;6.70;2.60;;;;;;;;;;103805;1292;544900;-77
2023/09/03 13:07:08;;;;;;;6.00;2.80;;;;;;;;;;103795;1294;544766;-76
2023/09/03 13:10:46;;;;;;;5.20;2.50;;;;;;;;;;103919;1290;545738;-75
2023/09/03 13:14:23;;;;;;;4.50;2.30;;;;;;;;;;103823;1292;544933;-76
2023/09/03 13:18:20;;;;;;;6.00;2.70;;;;;;;;;;103614;1292;547783;-74
2023/09/03 13:21:44;;;;;;;5.30;2.50;;;;;;;;;;104274;1286;547822;-74
2023/09/03 13:25:16;;;;;;;7.00;2.70;;;;;;;;;;103662;1292;546151;-73
2023/09/03 13:28:53;;;;;;;5.60;2.90;;;;;;;;;;103727;1294;544942;-75
2023/09/03 13:32:27;;;;;;;5.60;2.70;;;;;;;;;;103863;1289;544973;-73
2023/09/03 13:36:10;;;;;;;5.20;2.60;;;;;;;;;;103753;1292;544793;-74
2023/09/03 13:39:47;;;;;;;6.90;3.00;;;;;;;;;;103728;1295;544866;-77
2023/09/03 13:43:24;;;;;;;5.50;2.60;;;;;;;;;;103534;1295;545670;-74
2023/09/03 13:47:01;;;;;;;5.30;2.80;;;;;;;;;;103713;1294;545649;-74
2023/09/03 13:50:45;;;;;;;6.50;2.90;;;;;;;;;;103453;1294;547855;-73
2023/09/03 13:54:16;;;;;;;5.50;2.70;;;;;;;;;;103743;1289;545480;-75
2023/09/03 13:57:54;;;;;;;5.40;2.30;;;;;;;;;;103604;1295;545345;-76
2023/09/03 14:01:31;;;;;;;5.20;2.80;;;;;;;;;;104568;1282;546351;-73
2023/09/03 14:05:09;;;;;;;4.90;2.50;;;;;;;;;;103711;1289;544789;-74
2023/09/03 14:08:47;;;;;;;5.50;3.30;;;;;;;;;;103712;1292;545511;-76
2023/09/03 14:12:24;;;;;;;5.70;3.30;;;;;;;;;;103746;1295;545079;-74
2023/09/03 14:16:01;;;;;;;6.40;3.30;;;;;;;;;;103611;1291;544972;-76
2023/09/03 14:19:39;;;;;;;5.10;3.10;;;;;;;;;;103565;1301;544927;-76
2023/09/03 14:23:16;;;;;;;5.90;3.00;;;;;;;;;;103708;1289;545825;-75
2023/09/03 14:26:50;;;;;;;7.00;3.50;;;;;;;;;;103765;1288;544802;-74
2023/09/03 14:30:36;;;;;;;6.20;2.40;;;;;;;;;;103594;1298;549199;-74
2023/09/03 14:34:10;;;;;;;5.90;3.10;;;;;;;;;;103740;1292;544700;-74
2023/09/03 14:37:47;;;;;;;6.10;2.90;;;;;;;;;;103773;1291;544711;-76
2023/09/03 14:41:27;;;;;;;7.30;3.30;;;;;;;;;;103989;1291;545206;-74
2023/09/03 14:45:02;;;;;;;5.50;3.00;;;;;;;;;;103767;1292;544731;-73
2023/09/03 14:48:39;;;;;;;6.40;3.10;;;;;;;;;;103616;1291;545044;-77
2023/09/03 14:52:19;;;;;;;5.00;2.80;;;;;;;;;;103759;1292;545652;-77
2023/09/03 14:55:55;;;;;;;6.20;2.80;;;;;;;;;;103832;1300;544940;-76
2023/09/03 14:59:32;;;;;;;5.70;2.70;;;;;;;;;;104035;1289;545411;-76
2023/09/03 15:03:10;;;;;;;5.00;2.70;;;;;;;;;;104001;1291;545053;-75
2023/09/03 15:06:53;;;;;;;5.40;2.50;;;;;;;;;;103706;1292;548141;-74
2023/09/03 15:10:44;;;;;;;6.20;2.60;;;;;;;;;;103604;1289;546450;-72
2023/09/03 15:14:02;;;;;;;6.50;2.80;;;;;;;;;;103988;1289;544885;-75
2023/09/03 15:18:02;;;;;;;5.60;2.60;;;;;;;;;;103597;1289;547924;-79
2023/09/03 15:21:17;;;;;;;6.30;3.10;;;;;;;;;;103770;1295;545674;-79
2023/09/03 15:24:54;;;;;;;8.40;3.90;;;;;;;;;;104310;1282;544837;-77
2023/09/03 15:28:31;;;;;;;7.90;3.80;;;;;;;;;;103783;1288;545626;-74
2023/09/03 15:32:09;;;;;;;8.30;4.30;;;;;;;;;;103835;1292;545745;-77
2023/09/03 15:35:47;;;;;;;7.70;3.60;;;;;;;;;;103949;1289;545124;-76
2023/09/03 15:39:24;;;;;;;7.00;3.50;;;;;;;;;;103773;1289;546292;-77
2023/09/03 15:42:58;;;;;;;6.60;2.80;;;;;;;;;;103734;1289;545826;-75
2023/09/03 15:46:39;;;;;;;8.10;3.50;;;;;;;;;;104051;1290;545089;-76
2023/09/03 15:50:21;;;;;;;8.00;3.70;;;;;;;;;;104037;1291;544970;-74
2023/09/03 15:53:59;;;;;;;7.50;4.30;;;;;;;;;;103819;1292;544916;-78
2023/09/03 15:57:37;;;;;;;7.40;3.40;;;;;;;;;;103628;1289;544934;-73
2023/09/03 16:01:14;;;;;;;6.70;3.60;;;;;;;;;;103752;1289;544861;-80
2023/09/03 16:04:51;;;;;;;7.10;3.80;;;;;;;;;;103919;1288;544777;-75
2023/09/03 16:08:29;;;;;;;7.60;3.90;;;;;;;;;;103997;1290;544960;-75
2023/09/03 16:12:06;;;;;;;5.60;3.00;;;;;;;;;;104094;1292;545400;-73
2023/09/03 16:15:44;;;;;;;6.30;3.40;;;;;;;;;;103730;1291;544910;-77
2023/09/03 16:19:21;;;;;;;6.10;2.80;;;;;;;;;;103534;1293;545376;-74
2023/09/03 16:22:59;;;;;;;6.30;2.80;;;;;;;;;;104071;1291;545409;-76
2023/09/03 16:26:37;;;;;;;6.30;3.10;;;;;;;;;;104123;1292;544963;-73
2023/09/03 16:30:13;;;;;;;5.30;2.60;;;;;;;;;;103856;1291;545756;-73
2023/09/03 16:33:51;;;;;;;7.80;3.30;;;;;;;;;;103729;1293;544805;-75
2023/09/03 16:37:30;;;;;;;7.60;3.20;;;;;;;;;;103611;1291;544975;-73
2023/09/03 16:41:06;;;;;;;6.30;3.00;;;;;;;;;;103706;1291;544991;-75
2023/09/03 16:44:43;;;;;;;6.20;3.10;;;;;;;;;;103781;1292;544782;-74
2023/09/03 16:48:22;;;;;;;6.20;3.00;;;;;;;;;;103891;1289;544782;-75
2023/09/03 16:52:05;;;;;;;6.20;3.20;;;;;;;;;;103912;1288;547788;-77
2023/09/03 16:55:36;;;;;;;7.50;3.50;;;;;;;;;;104032;1292;545008;-73
2023/09/03 16:59:14;;;;;;;7.30;3.60;;;;;;;;;;103912;1292;544901;-77
2023/09/03 17:02:52;;;;;;;6.30;3.20;;;;;;;;;;103866;1290;544755;-75
2023/09/03 17:06:28;;;;;;;6.30;3.10;;;;;;;;;;103971;1292;545007;-74
2023/09/03 17:10:05;;;;;;;5.70;2.60;;;;;;;;;;104143;1292;544945;-73
2023/09/03 17:13:42;;;;;;;6.50;3.30;;;;;;;;;;104546;1285;545129;-78
2023/09/03 17:17:20;;;;;;;7.90;3.30;;;;;;;;;;104034;1289;544983;-74
2023/09/03 17:20:58;;;;;;;8.70;3.90;;;;;;;;;;104042;1295;544971;-73
2023/09/03 17:24:35;;;;;;;7.40;4.00;;;;;;;;;;104130;1289;545315;-76
2023/09/03 17:28:13;;;;;;;8.10;4.30;;;;;;;;;;103966;1295;544966;-74
2023/09/03 17:31:53;;;;;;;9.00;5.20;;;;;;;;;;103942;1289;545421;-79
2023/09/03 17:35:28;;;;;;;10.80;5.80;;;;;;;;;;104025;1291;544927;-73
2023/09/03 17:39:05;;;;;;;11.00;5.30;;;;;;;;;;103919;1290;545172;-75
2023/09/03 17:42:43;;;;;;;9.50;5.20;;;;;;;;;;103916;1289;545010;-74
2023/09/03 17:46:20;;;;;;;11.60;6.20;;;;;;;;;;104084;1292;545004;-73
2023/09/03 17:50:17;;;;;;;13.00;6.90;;;;;;;;;;103879;1295;547964;-77
2023/09/03 17:53:35;;;;;;;10.90;5.70;;;;;;;;;;104013;1289;544811;-74
2023/09/03 17:57:13;;;;;;;8.40;4.60;;;;;;;;;;103854;1292;545200;-73
2023/09/03 18:00:50;;;;;;;10.70;4.90;;;;;;;;;;103930;1289;544893;-74
2023/09/03 18:04:28;;;;;;;10.10;4.40;;;;;;;;;;103746;1293;544953;-73
2023/09/03 18:08:05;;;;;;;8.40;4.30;;;;;;;;;;103512;1292;545371;-75
2023/09/03 18:11:42;;;;;;;9.20;4.80;;;;;;;;;;103696;1295;544764;-78
2023/09/03 18:15:20;;;;;;;10.30;4.50;;;;;;;;;;103819;1289;545613;-72
2023/09/03 18:18:57;;;;;;;10.80;4.40;;;;;;;;;;103612;1292;544842;-74
2023/09/03 18:22:54;;;;;;;10.80;5.10;;;;;;;;;;103841;1292;548427;-74
2023/09/03 18:26:12;;;;;;;10.40;5.20;;;;;;;;;;103636;1291;545634;-79
2023/09/03 18:29:49;;;;;;;9.70;4.80;;;;;;;;;;103745;1292;545557;-73
2023/09/03 18:33:27;;;;;;;8.60;4.40;;;;;;;;;;103807;1290;544776;-75
2023/09/03 18:37:00;;;;;;;9.10;4.80;;;;;;;;;;103714;1292;544972;-78
2023/09/03 18:40:44;;;;;;;8.90;4.80;;;;;;;;;;103635;1291;544989;-73
2023/09/03 18:44:20;;;;;;;9.50;4.80;;;;;;;;;;103804;1289;545056;-74
2023/09/03 18:47:58;;;;;;;7.80;3.80;;;;;;;;;;103738;1290;544991;-73
2023/09/03 18:51:36;;;;;;;9.80;4.70;;;;;;;;;;103793;1292;545395;-73
2023/09/03 18:55:13;;;;;;;8.20;4.30;;;;;;;;;;103758;1290;544936;-73
2023/09/03 18:58:51;;;;;;;9.30;4.00;;;;;;;;;;103731;1292;545226;-74
2023/09/03 19:02:29;;;;;;;7.80;4.00;;;;;;;;;;103741;1291;545725;-77
2023/09/03 19:06:07;;;;;;;9.50;4.30;;;;;;;;;;103709;1290;544868;-74
2023/09/03 19:09:50;;;;;;;8.10;3.70;;;;;;;;;;103647;1290;547815;-80
2023/09/03 19:13:17;;;;;;;8.40;3.50;;;;;;;;;;103704;1292;544796;-78
2023/09/03 19:16:58;;;;;;;10.10;3.80;;;;;;;;;;103748;1291;545056;-73
2023/09/03 19:20:37;;;;;;;9.70;3.60;;;;;;;;;;103727;1291;545472;-73
2023/09/03 19:24:22;;;;;;;7.00;3.00;;;;;;;;;;103519;1291;547788;-73
2023/09/03 19:27:50;;;;;;;7.50;3.10;;;;;;;;;;104594;1284;544994;-73
2023/09/03 19:31:29;;;;;;;5.50;2.80;;;;;;;;;;103749;1292;544844;-74
2023/09/03 19:35:02;;;;;;;7.50;3.20;;;;;;;;;;103739;1295;545417;-75
2023/09/03 19:38:46;;;;;;;7.30;2.90;;;;;;;;;;103829;1292;545226;-73
2023/09/03 19:42:22;;;;;;;6.70;2.40;;;;;;;;;;104107;1292;545046;-75
2023/09/03 19:46:03;;;;;;;6.10;2.90;;;;;;;;;;103719;1294;545178;-74
2023/09/03 19:49:37;;;;;;;6.90;2.90;;;;;;;;;;103878;1289;544809;-75
2023/09/03 19:53:15;;;;;;;5.20;2.40;;;;;;;;;;103758;1291;545570;-75
2023/09/03 19:56:52;;;;;;;6.10;2.80;;;;;;;;;;103734;1302;544962;-76
2023/09/03 20:00:30;;;;;;;6.40;2.50;;;;;;;;;;103745;1291;544991;-78
2023/09/03 20:04:12;;;;;;;6.10;2.60;;;;;;;;;;103656;1291;547799;-80
2023/09/03 20:07:45;;;;;;;7.10;2.70;;;;;;;;;;103791;1292;544900;-75
2023/09/03 20:11:22;;;;;;;8.00;2.40;;;;;;;;;;103758;1291;544968;-76
2023/09/03 20:14:59;;;;;;;4.80;2.30;;;;;;;;;;103725;1290;545181;-78
2023/09/03 20:18:37;;;;;;;6.90;2.70;;;;;;;;;;103775;1292;545332;-73
2023/09/03 20:22:18;;;;;;;7.90;3.00;;;;;;;;;;103640;1292;544952;-81
2023/09/03 20:25:55;;;;;;;5.20;2.50;;;;;;;;;;103735;1292;544878;-76
2023/09/03 20:29:32;;;;;;;6.50;2.40;;;;;;;;;;103675;1291;544874;-76
2023/09/03 20:33:06;;;;;;;5.80;2.60;;;;;;;;;;103735;1288;544747;-77
2023/09/03 20:36:44;;;;;;;5.00;2.40;;;;;;;;;;103541;1295;544840;-73
2023/09/03 20:40:22;;;;;;;6.20;2.40;;;;;;;;;;103740;1292;544921;-74
2023/09/03 20:43:59;;;;;;;5.60;2.40;;;;;;;;;;103731;1291;544980;-78
2023/09/03 20:47:32;;;;;;;5.70;2.30;;;;;;;;;;103799;1292;544949;-73
2023/09/03 20:51:15;;;;;;;7.40;2.20;;;;;;;;;;103969;1292;544587;-73
2023/09/03 20:54:53;;;;;;;6.70;2.40;;;;;;;;;;103712;1288;544774;-75
2023/09/03 20:58:30;;;;;;;4.40;1.90;;;;;;;;;;103812;1292;544958;-74
2023/09/03 21:02:07;;;;;;;5.70;2.10;;;;;;;;;;104013;1295;545064;-73
2023/09/03 21:05:52;;;;;;;5.80;2.20;;;;;;;;;;103621;1290;544791;-79
2023/09/03 21:09:22;;;;;;;6.20;2.50;;;;;;;;;;103700;1291;545425;-74
2023/09/03 21:13:00;;;;;;;6.00;2.40;;;;;;;;;;104023;1293;545060;-73
2023/09/03 21:16:37;;;;;;;7.10;1.90;;;;;;;;;;103723;1291;546006;-73
2023/09/03 21:20:16;;;;;;;4.90;1.80;;;;;;;;;;103955;1289;544786;-74
2023/09/03 21:23:58;;;;;;;5.00;2.10;;;;;;;;;;103469;1295;547788;-79
2023/09/03 21:27:30;;;;;;;5.20;2.10;;;;;;;;;;104011;1291;546411;-73
2023/09/03 21:31:14;;;;;;;4.70;2.00;;;;;;;;;;103733;1289;545914;-74
2023/09/03 21:34:44;;;;;;;6.00;2.10;;;;;;;;;;103739;1302;544977;-77
2023/09/03 21:38:22;;;;;;;4.30;2.00;;;;;;;;;;103678;1289;544985;-76
2023/09/03 21:42:00;;;;;;;6.90;2.30;;;;;;;;;;103512;1294;545124;-73
2023/09/03 21:45:37;;;;;;;5.60;2.50;;;;;;;;;;104464;1285;545031;-75
2023/09/03 21:49:15;;;;;;;5.70;2.60;;;;;;;;;;103711;1292;545583;-73
2023/09/03 21:52:52;;;;;;;7.90;2.00;;;;;;;;;;103673;1293;545001;-74
2023/09/03 21:56:29;;;;;;;6.00;2.10;;;;;;;;;;104149;1289;544772;-79
2023/09/03 22:00:10;;;;;;;8.70;2.50;;;;;;;;;;103770;1291;545351;-74
2023/09/03 22:03:45;;;;;;;6.00;2.30;;;;;;;;;;103734;1292;544947;-74
2023/09/03 22:07:22;;;;;;;4.60;2.00;;;;;;;;;;103651;1292;544611;-76
2023/09/03 22:11:00;;;;;;;5.30;2.10;;;;;;;;;;103775;1292;544954;-75
2023/09/03 22:14:37;;;;;;;6.10;2.40;;;;;;;;;;104047;1289;545123;-75
2023/09/03 22:18:14;;;;;;;4.90;1.90;;;;;;;;;;103705;1292;545688;-73
2023/09/03 22:21:57;;;;;;;5.40;2.20;;;;;;;;;;103478;1295;547981;-74